EGNS/IOM METAR and TAF weather

Enter ICAO airport designator
Station Type Date Time Source
EGNS METAR 2018/04/21 20:50 UTC NOAA

EGNS 212050Z 08006KT CAVOK 10/07 Q1010


Station Type Date Time Source
EGNS Decoded METAR 2018/04/21 20:50 UTC NOAA

Isle Of Man / Ronaldsway Airport, United Kingdom (EGNS) 54-05N 004-38W 0M
Apr 21, 2018 - 04:50 PM EDT / 2018.04.21 2050 UTC
Wind: from the E (080 degrees) at 7 MPH (6 KT):0
Visibility: greater than 7 mile(s):0
Temperature: 50 F (10 C)
Dew Point: 44 F (7 C)
Relative Humidity: 81%
Pressure (altimeter): 29.83 in. Hg (1010 hPa)
ob: EGNS 212050Z 08006KT CAVOK 10/07 Q1010
cycle: 21

Station Type Date Time Source
EGNS TAF 2017/03/09 09:27 UTC NOAA

TAF TAF EGNS 090800Z 0909/0921 29012KT 9999 SCT018


Example: see airport list